createdAt,value
2024-03-29T00:00:06.308Z,10.4
2024-03-29T00:01:36.874Z,10.4
2024-03-29T00:03:07.387Z,10.4
2024-03-29T00:04:37.926Z,10.4
2024-03-29T00:06:08.556Z,10.4
2024-03-29T00:07:39.065Z,10.4
2024-03-29T00:09:09.594Z,10.4
2024-03-29T00:10:40.219Z,10.4
2024-03-29T00:12:10.726Z,10.4
2024-03-29T00:13:41.144Z,10.4
2024-03-29T00:15:11.703Z,10.4
2024-03-29T00:16:42.201Z,10.4
2024-03-29T00:18:12.711Z,10.4
2024-03-29T00:19:43.157Z,10.4
2024-03-29T00:21:13.585Z,10.4
2024-03-29T00:22:44.101Z,10.3
2024-03-29T00:24:14.628Z,10.4
2024-03-29T00:25:45.442Z,10.4
2024-03-29T00:27:16.000Z,10.4
2024-03-29T00:28:46.532Z,10.4
2024-03-29T00:30:17.236Z,10.4
2024-03-29T00:31:47.865Z,10.4
2024-03-29T00:33:18.465Z,10.4
2024-03-29T00:34:49.006Z,10.4
2024-03-29T00:36:19.501Z,10.4
2024-03-29T00:37:50.318Z,10.3
2024-03-29T00:39:20.880Z,10.3
2024-03-29T00:40:51.387Z,10.3
2024-03-29T00:42:21.799Z,10.4
2024-03-29T00:43:52.230Z,10.4
2024-03-29T00:45:28.440Z,10.4
2024-03-29T00:47:03.193Z,10.4
2024-03-29T00:48:33.730Z,10.3
2024-03-29T00:50:04.295Z,10.3
2024-03-29T00:51:34.779Z,10.4
2024-03-29T00:53:05.314Z,10.3
2024-03-29T00:54:35.814Z,10.4
2024-03-29T00:56:06.385Z,10.4
2024-03-29T00:57:36.976Z,10.4
2024-03-29T00:59:07.497Z,10.4
2024-03-29T01:00:38.045Z,10.4
2024-03-29T01:02:08.526Z,10.4
2024-03-29T01:03:38.959Z,10.4
2024-03-29T01:05:09.489Z,10.3
2024-03-29T01:06:40.007Z,10.3
2024-03-29T01:08:10.425Z,10.3
2024-03-29T01:09:40.934Z,10.3
2024-03-29T01:11:11.368Z,10.3
2024-03-29T01:12:41.910Z,10.4
2024-03-29T01:14:12.398Z,10.4
2024-03-29T01:15:42.828Z,10.3
2024-03-29T01:17:13.387Z,10.4
2024-03-29T01:18:43.873Z,10.4
2024-03-29T01:20:14.410Z,10.4
2024-03-29T01:21:44.939Z,10.3
2024-03-29T01:23:15.456Z,10.4
2024-03-29T01:24:45.958Z,10.4
2024-03-29T01:26:16.389Z,10.4
2024-03-29T01:27:46.925Z,10.3
2024-03-29T01:29:17.429Z,10.3
2024-03-29T01:30:47.848Z,10.3
2024-03-29T01:32:18.277Z,10.3
2024-03-29T01:33:48.792Z,10.3
2024-03-29T01:35:19.233Z,10.4
2024-03-29T01:36:49.646Z,10.4
2024-03-29T01:38:20.162Z,10.4
2024-03-29T01:39:50.573Z,10.3
2024-03-29T01:41:21.010Z,10.3
2024-03-29T01:41:37.989Z,10.3
2024-03-29T01:43:08.410Z,10.3
2024-03-29T01:44:38.831Z,10.3
2024-03-29T01:46:09.266Z,10.3
2024-03-29T01:47:39.776Z,10.3
2024-03-29T01:49:10.193Z,10.4
2024-03-29T01:50:40.636Z,10.3
2024-03-29T01:52:11.148Z,10.4
2024-03-29T01:53:41.567Z,10.4
2024-03-29T01:55:11.998Z,10.3
2024-03-29T01:56:42.512Z,10.3
2024-03-29T01:58:13.028Z,10.3
2024-03-29T01:59:43.477Z,10.4
2024-03-29T03:03:23.411Z,10.3
2024-03-29T03:04:53.843Z,10.3
2024-03-29T03:06:24.290Z,10.3
2024-03-29T03:07:54.790Z,10.3
2024-03-29T03:09:25.308Z,10.3
2024-03-29T03:10:55.743Z,10.3
2024-03-29T03:12:26.256Z,10.3
2024-03-29T03:13:56.673Z,10.3
2024-03-29T03:15:27.102Z,10.3
2024-03-29T03:16:57.622Z,10.3
2024-03-29T03:18:28.057Z,10.3
2024-03-29T03:19:58.558Z,10.4
2024-03-29T03:21:28.997Z,10.3
2024-03-29T03:22:59.515Z,10.3
2024-03-29T03:24:30.041Z,10.3
2024-03-29T03:26:00.460Z,10.3
2024-03-29T03:27:30.971Z,10.3
2024-03-29T03:29:01.494Z,10.3
2024-03-29T03:30:31.927Z,10.3
2024-03-29T03:32:02.571Z,10.3
2024-03-29T03:33:33.079Z,10.3
2024-03-29T03:35:03.614Z,10.3
2024-03-29T03:36:34.100Z,10.3
2024-03-29T03:38:04.537Z,10.3
2024-03-29T03:39:35.171Z,10.3
2024-03-29T03:41:05.692Z,10.3
2024-03-29T03:42:36.304Z,10.4
2024-03-29T03:44:06.775Z,10.3
2024-03-29T03:45:37.381Z,10.3
2024-03-29T03:47:07.906Z,10.3
2024-03-29T03:48:38.405Z,10.3
2024-03-29T03:50:08.864Z,10.3
2024-03-29T03:51:39.334Z,10.3
2024-03-29T03:53:09.762Z,10.4
2024-03-29T03:54:40.187Z,10.3
2024-03-29T03:56:10.697Z,10.4
2024-03-29T03:57:41.114Z,10.4
2024-03-29T03:59:11.632Z,10.3
2024-03-29T04:00:42.078Z,10.3
2024-03-29T04:02:12.607Z,10.3
2024-03-29T04:03:43.038Z,10.3
2024-03-29T04:05:13.557Z,10.3
2024-03-29T04:06:44.050Z,10.3
2024-03-29T04:08:14.524Z,10.3
2024-03-29T04:09:45.003Z,10.3
2024-03-29T04:11:15.411Z,10.3
2024-03-29T04:12:45.831Z,10.3
2024-03-29T04:14:16.272Z,10.3
2024-03-29T04:15:46.774Z,10.3
2024-03-29T04:17:17.247Z,10.3
2024-03-29T04:18:47.768Z,10.3
2024-03-29T04:20:18.243Z,10.4
2024-03-29T04:21:48.659Z,10.3
2024-03-29T04:23:19.323Z,10.3
2024-03-29T04:24:49.818Z,10.3
2024-03-29T04:26:20.238Z,10.3
2024-03-29T04:27:50.759Z,10.3
2024-03-29T04:29:21.291Z,10.3
2024-03-29T04:30:51.824Z,10.3
2024-03-29T04:32:22.228Z,10.3
2024-03-29T04:33:52.695Z,10.3
2024-03-29T04:35:23.160Z,10.3
2024-03-29T04:36:53.580Z,10.2
2024-03-29T04:38:24.027Z,10.3
2024-03-29T04:39:54.521Z,10.3
2024-03-29T04:41:24.954Z,10.3
2024-03-29T04:42:55.379Z,10.3
2024-03-29T04:44:25.895Z,10.3
2024-03-29T04:45:56.418Z,10.3
2024-03-29T04:47:26.848Z,10.3
2024-03-29T04:48:57.294Z,10.3
2024-03-29T04:50:27.771Z,10.3
2024-03-29T04:51:58.194Z,10.3
2024-03-29T04:52:15.097Z,10.3
2024-03-29T04:53:45.518Z,10.3
2024-03-29T04:55:16.134Z,10.3
2024-03-29T04:56:46.571Z,10.3
2024-03-29T04:58:17.197Z,10.3
2024-03-29T04:59:47.710Z,10.3
2024-03-29T05:01:18.122Z,10.3
2024-03-29T05:02:48.651Z,10.3
2024-03-29T05:04:19.277Z,10.3
2024-03-29T05:05:49.699Z,10.3
2024-03-29T05:07:20.134Z,10.3
2024-03-29T05:08:50.636Z,10.3
2024-03-29T05:10:21.156Z,10.3
2024-03-29T05:11:51.609Z,10.3
2024-03-29T05:13:22.106Z,10.3
2024-03-29T05:14:52.631Z,10.3
2024-03-29T05:16:23.196Z,10.3
2024-03-29T05:17:53.674Z,10.3
2024-03-29T05:19:24.119Z,10.3
2024-03-29T05:20:54.640Z,10.3
2024-03-29T05:22:25.135Z,10.3
2024-03-29T05:23:55.564Z,10.3
2024-03-29T05:25:26.014Z,10.3
2024-03-29T05:26:56.508Z,10.3
2024-03-29T05:28:27.024Z,10.3
2024-03-29T05:29:57.492Z,10.3
2024-03-29T05:31:27.980Z,10.3
2024-03-29T05:32:58.491Z,10.3
2024-03-29T05:34:29.046Z,10.3
2024-03-29T05:35:59.556Z,10.3
2024-03-29T05:37:30.071Z,10.3
2024-03-29T05:39:00.952Z,10.2
2024-03-29T05:40:36.245Z,10.2
2024-03-29T05:42:06.749Z,10.2
2024-03-29T05:43:37.165Z,10.2
2024-03-29T05:45:07.611Z,10.3
2024-03-29T05:46:38.006Z,10.3
2024-03-29T05:48:08.446Z,10.3
2024-03-29T05:49:38.865Z,10.3
2024-03-29T05:51:09.267Z,10.3
2024-03-29T05:52:39.686Z,10.3
2024-03-29T05:54:10.123Z,10.3
2024-03-29T05:55:40.629Z,10.3
2024-03-29T05:57:11.150Z,10.3
2024-03-29T05:58:41.596Z,10.3
2024-03-29T06:00:12.185Z,10.3
2024-03-29T06:01:42.626Z,10.3
2024-03-29T06:03:13.334Z,10.3
2024-03-29T06:04:43.884Z,10.3
2024-03-29T06:06:14.293Z,10.3
2024-03-29T06:07:44.854Z,10.3
2024-03-29T06:09:15.345Z,10.3
2024-03-29T06:10:45.759Z,10.3
2024-03-29T06:12:16.193Z,10.3
2024-03-29T06:13:46.608Z,10.3
2024-03-29T06:15:17.021Z,10.3
2024-03-29T06:16:47.442Z,10.3
2024-03-29T06:18:17.864Z,10.4
2024-03-29T06:19:48.295Z,10.3
2024-03-29T06:21:18.702Z,10.3
2024-03-29T06:22:49.144Z,10.3
2024-03-29T06:24:19.639Z,10.3
2024-03-29T06:25:50.064Z,10.3
2024-03-29T06:27:20.518Z,10.4
2024-03-29T06:28:51.006Z,10.3
2024-03-29T06:30:21.439Z,10.3
2024-03-29T06:31:51.882Z,10.3
2024-03-29T06:33:22.368Z,10.4
2024-03-29T06:34:52.815Z,10.4
2024-03-29T06:36:23.348Z,10.4
2024-03-29T06:37:53.856Z,10.4
2024-03-29T06:39:24.362Z,10.3
2024-03-29T06:40:54.829Z,10.3
2024-03-29T06:41:11.784Z,10.3
2024-03-29T06:42:42.259Z,10.4
2024-03-29T06:44:12.677Z,10.4
2024-03-29T06:45:43.223Z,10.4
2024-03-29T06:47:13.738Z,10.4
2024-03-29T06:48:44.444Z,10.4
2024-03-29T06:50:15.007Z,10.4
2024-03-29T06:51:45.715Z,10.3
2024-03-29T06:53:16.233Z,10.4
2024-03-29T06:54:46.742Z,10.4
2024-03-29T06:56:17.188Z,10.4
2024-03-29T06:57:47.686Z,10.4
2024-03-29T06:59:18.106Z,10.4
2024-03-29T07:00:48.530Z,10.4
2024-03-29T07:02:18.974Z,10.4
2024-03-29T07:03:49.367Z,10.4
2024-03-29T07:05:19.824Z,10.4
2024-03-29T07:06:50.323Z,10.4
2024-03-29T07:08:20.731Z,10.4
2024-03-29T07:09:51.168Z,10.4
2024-03-29T07:11:21.674Z,10.4
2024-03-29T07:12:52.092Z,10.4
2024-03-29T07:14:22.546Z,10.4
2024-03-29T07:15:53.037Z,10.4
2024-03-29T07:17:23.471Z,10.4
2024-03-29T07:18:53.898Z,10.4
2024-03-29T07:20:24.334Z,10.4
2024-03-29T07:21:54.823Z,10.4
2024-03-29T07:23:25.256Z,10.4
2024-03-29T07:24:55.664Z,10.4
2024-03-29T07:26:26.108Z,10.4
2024-03-29T07:27:56.613Z,10.4
2024-03-29T07:29:27.035Z,10.4
2024-03-29T07:30:57.459Z,10.4
2024-03-29T07:32:27.964Z,10.4
2024-03-29T07:33:58.416Z,10.4
2024-03-29T07:35:28.831Z,10.4
2024-03-29T07:36:59.228Z,10.4
2024-03-29T07:38:29.664Z,10.4
2024-03-29T07:40:00.069Z,10.4
2024-03-29T07:41:30.591Z,10.4
2024-03-29T07:43:01.015Z,10.4
2024-03-29T07:44:31.431Z,10.4
2024-03-29T07:46:01.863Z,10.4
2024-03-29T07:47:32.312Z,10.4
2024-03-29T07:49:02.793Z,10.4
2024-03-29T07:50:33.321Z,10.4
2024-03-29T07:52:03.771Z,10.4
2024-03-29T07:53:34.258Z,10.4
2024-03-29T07:55:04.690Z,10.4
2024-03-29T07:56:40.953Z,10.4
2024-03-29T07:58:11.375Z,10.4
2024-03-29T07:59:41.784Z,10.4
2024-03-29T08:01:12.216Z,10.5
2024-03-29T08:02:42.622Z,10.5
2024-03-29T08:04:13.156Z,10.5
2024-03-29T08:05:43.575Z,10.5
2024-03-29T08:07:13.999Z,10.5
2024-03-29T08:08:44.405Z,10.4
2024-03-29T08:10:14.837Z,10.5
2024-03-29T08:11:45.247Z,10.5
2024-03-29T08:13:15.666Z,10.4
2024-03-29T08:14:46.083Z,10.5
2024-03-29T08:16:16.504Z,10.4
2024-03-29T08:17:46.929Z,10.4
2024-03-29T08:19:17.344Z,10.4
2024-03-29T08:20:47.810Z,10.4
2024-03-29T08:22:18.289Z,10.5
2024-03-29T08:23:48.720Z,10.4
2024-03-29T08:25:19.175Z,10.4
2024-03-29T08:26:49.669Z,10.4
2024-03-29T08:28:20.075Z,10.4
2024-03-29T08:29:50.790Z,10.5
2024-03-29T08:33:08.561Z,10.4
2024-03-29T08:34:38.978Z,10.4
2024-03-29T08:36:09.565Z,10.4
2024-03-29T08:37:40.006Z,10.4
2024-03-29T08:39:10.423Z,10.4
2024-03-29T08:40:40.846Z,10.4
2024-03-29T08:42:11.263Z,10.4
2024-03-29T08:43:41.694Z,10.4
2024-03-29T08:45:12.108Z,10.5
2024-03-29T08:46:42.623Z,10.4
2024-03-29T08:48:14.258Z,10.4
2024-03-29T08:49:44.811Z,10.4
2024-03-29T08:51:15.462Z,10.5
2024-03-29T08:52:45.945Z,10.4
2024-03-29T08:54:16.409Z,10.4
2024-03-29T08:55:46.896Z,10.5
2024-03-29T08:57:17.315Z,10.4
2024-03-29T08:58:47.764Z,10.4
2024-03-29T09:00:18.565Z,10.4
2024-03-29T09:03:27.234Z,10.4
2024-03-29T09:04:57.683Z,10.4
2024-03-29T09:06:28.097Z,10.4
2024-03-29T09:07:58.532Z,10.4
2024-03-29T09:09:29.037Z,10.4
2024-03-29T09:10:59.438Z,10.4
2024-03-29T09:12:29.880Z,10.5
2024-03-29T09:14:00.300Z,10.5
2024-03-29T09:15:36.451Z,10.4
2024-03-29T09:17:06.980Z,10.5
2024-03-29T09:18:37.392Z,10.5
2024-03-29T09:20:07.812Z,10.5
2024-03-29T09:21:38.251Z,10.5
2024-03-29T09:23:09.069Z,10.5
2024-03-29T09:24:39.581Z,10.5
2024-03-29T09:26:10.002Z,10.5
2024-03-29T09:27:40.433Z,10.5
2024-03-29T09:29:10.838Z,10.5
2024-03-29T09:30:41.258Z,10.5
2024-03-29T09:32:11.707Z,10.5
2024-03-29T09:33:42.209Z,10.5
2024-03-29T09:35:12.744Z,10.5
2024-03-29T09:36:43.184Z,10.5
2024-03-29T09:38:13.684Z,10.5
2024-03-29T09:39:44.188Z,10.5
2024-03-29T09:41:14.634Z,10.5
2024-03-29T09:42:45.144Z,10.5
2024-03-29T09:44:15.555Z,10.5
2024-03-29T09:45:46.078Z,10.5
2024-03-29T09:47:16.534Z,10.5
2024-03-29T09:48:47.635Z,10.5
2024-03-29T09:50:18.076Z,10.5
2024-03-29T09:51:48.605Z,10.5
2024-03-29T09:53:19.114Z,10.5
2024-03-29T09:54:49.729Z,10.5
2024-03-29T09:56:20.193Z,10.5
2024-03-29T09:57:50.665Z,10.5
2024-03-29T09:59:21.098Z,10.5
2024-03-29T10:00:51.535Z,10.5
2024-03-29T10:02:21.954Z,10.5
2024-03-29T10:03:52.468Z,10.5
2024-03-29T10:05:22.919Z,10.5
2024-03-29T10:06:53.412Z,10.6
2024-03-29T10:08:23.923Z,10.6
2024-03-29T10:09:54.365Z,10.6
2024-03-29T10:11:24.877Z,10.5
2024-03-29T10:12:55.605Z,10.5
2024-03-29T10:14:26.146Z,10.5
2024-03-29T10:15:56.672Z,10.6
2024-03-29T10:17:27.168Z,10.6
2024-03-29T10:18:57.716Z,10.5
2024-03-29T10:20:28.231Z,10.6
2024-03-29T10:21:58.746Z,10.6
2024-03-29T10:23:29.265Z,10.6
2024-03-29T10:24:59.820Z,10.5
2024-03-29T10:26:30.437Z,10.5
2024-03-29T10:28:00.925Z,10.6
2024-03-29T10:29:31.359Z,10.6
2024-03-29T10:31:01.795Z,10.5
2024-03-29T10:32:32.291Z,10.6
2024-03-29T10:34:02.718Z,10.6
2024-03-29T10:35:33.444Z,10.6
2024-03-29T10:37:03.976Z,10.5
2024-03-29T10:38:34.411Z,10.6
2024-03-29T10:40:04.901Z,10.5
2024-03-29T10:41:35.629Z,10.6
2024-03-29T10:43:06.070Z,10.6
2024-03-29T10:44:36.568Z,10.6
2024-03-29T10:46:06.996Z,10.6
2024-03-29T10:47:37.675Z,10.6
2024-03-29T10:49:08.242Z,10.6
2024-03-29T10:50:38.668Z,10.6
2024-03-29T10:52:09.127Z,10.6
2024-03-29T10:53:56.519Z,10.6
2024-03-29T10:55:27.038Z,10.6
2024-03-29T10:56:57.467Z,10.6
2024-03-29T10:58:27.983Z,10.6
2024-03-29T10:59:58.493Z,10.6
2024-03-29T11:01:28.921Z,10.6
2024-03-29T11:02:59.467Z,10.6
2024-03-29T11:04:29.950Z,10.6
2024-03-29T11:06:00.395Z,10.6
2024-03-29T11:07:31.221Z,10.6
2024-03-29T11:09:01.624Z,10.6
2024-03-29T11:10:32.076Z,10.6
2024-03-29T11:12:02.580Z,10.6
2024-03-29T11:13:32.987Z,10.6
2024-03-29T11:15:03.409Z,10.6
2024-03-29T11:16:33.835Z,10.6
2024-03-29T11:18:04.248Z,10.6
2024-03-29T11:19:34.678Z,10.6
2024-03-29T11:21:05.101Z,10.6
2024-03-29T11:22:35.636Z,10.6
2024-03-29T11:24:06.034Z,10.6
2024-03-29T11:25:36.474Z,10.6
2024-03-29T11:27:07.078Z,10.6
2024-03-29T11:28:37.497Z,10.6
2024-03-29T11:30:09.564Z,10.6
2024-03-29T11:31:41.716Z,10.6
2024-03-29T11:33:12.140Z,10.6
2024-03-29T11:34:42.568Z,10.6
2024-03-29T11:36:13.087Z,10.6
2024-03-29T11:37:43.524Z,10.6
2024-03-29T11:39:14.041Z,10.6
2024-03-29T11:40:44.594Z,10.6
2024-03-29T11:42:16.334Z,10.7
2024-03-29T11:43:47.024Z,10.7
2024-03-29T11:45:17.552Z,10.7
2024-03-29T11:46:47.967Z,10.7
2024-03-29T11:48:18.414Z,10.7
2024-03-29T11:49:49.028Z,10.7
2024-03-29T11:51:19.437Z,10.7
2024-03-29T11:52:49.883Z,10.7
2024-03-29T11:54:21.534Z,10.7
2024-03-29T11:55:55.837Z,10.7
2024-03-29T11:57:26.345Z,10.7
2024-03-29T11:58:56.895Z,10.8
2024-03-29T12:00:27.402Z,10.7
2024-03-29T12:01:57.805Z,10.7
2024-03-29T12:03:28.456Z,10.7
2024-03-29T12:04:58.957Z,10.7
2024-03-29T12:06:29.376Z,10.7
2024-03-29T12:07:59.838Z,10.7
2024-03-29T12:09:30.342Z,10.7
2024-03-29T12:11:00.852Z,10.7
2024-03-29T12:12:31.403Z,10.8
2024-03-29T12:14:01.892Z,10.7
2024-03-29T12:15:32.463Z,10.8
2024-03-29T12:17:02.979Z,10.7
2024-03-29T12:18:33.498Z,10.7
2024-03-29T12:20:04.100Z,10.8
2024-03-29T12:21:34.712Z,10.7
2024-03-29T12:23:05.176Z,10.7
2024-03-29T12:24:35.750Z,10.7
2024-03-29T12:26:06.173Z,10.7
2024-03-29T12:27:36.755Z,10.7
2024-03-29T12:29:07.227Z,10.7
2024-03-29T12:30:37.636Z,10.8
2024-03-29T12:32:08.068Z,10.7
2024-03-29T12:33:38.473Z,10.7
2024-03-29T12:35:08.903Z,10.7
2024-03-29T12:36:39.338Z,10.7
2024-03-29T12:38:09.763Z,10.7
2024-03-29T12:39:40.171Z,10.7
2024-03-29T12:41:10.779Z,10.7
2024-03-29T12:41:27.739Z,10.7
2024-03-29T12:42:58.207Z,10.7
2024-03-29T12:44:28.654Z,10.8
2024-03-29T12:45:59.300Z,10.7
2024-03-29T12:47:29.795Z,10.7
2024-03-29T12:49:00.292Z,10.7
2024-03-29T12:50:30.728Z,10.7
2024-03-29T12:52:01.148Z,10.7
2024-03-29T12:53:31.574Z,10.7
2024-03-29T12:55:02.373Z,10.7
2024-03-29T12:56:33.203Z,10.7
2024-03-29T12:58:03.840Z,10.8
2024-03-29T12:59:34.280Z,10.7
2024-03-29T13:01:04.697Z,10.7
2024-03-29T13:02:35.112Z,10.7
2024-03-29T13:04:05.536Z,10.7
2024-03-29T13:05:36.062Z,10.7
2024-03-29T13:07:06.575Z,10.7
2024-03-29T13:08:37.196Z,10.7
2024-03-29T13:10:08.042Z,10.8
2024-03-29T13:11:38.548Z,10.7
2024-03-29T13:13:08.965Z,10.7
2024-03-29T13:14:41.850Z,10.7
2024-03-29T13:16:12.704Z,10.7
2024-03-29T13:17:43.202Z,10.7
2024-03-29T13:19:13.775Z,10.8
2024-03-29T13:20:44.253Z,10.8
2024-03-29T13:22:14.784Z,10.8
2024-03-29T13:23:45.233Z,10.7
2024-03-29T13:25:15.732Z,10.7
2024-03-29T13:26:46.243Z,10.7
2024-03-29T13:28:16.674Z,10.7
2024-03-29T13:29:47.160Z,10.7
2024-03-29T13:31:17.610Z,10.7
2024-03-29T13:32:48.221Z,10.8
2024-03-29T13:34:18.751Z,10.8
2024-03-29T13:35:49.191Z,10.8
2024-03-29T13:37:19.692Z,10.8
2024-03-29T13:38:55.272Z,10.9
2024-03-29T13:40:31.799Z,10.8
2024-03-29T13:42:02.212Z,10.8
2024-03-29T13:43:32.753Z,10.8
2024-03-29T13:45:03.257Z,10.8
2024-03-29T13:46:33.988Z,10.8
2024-03-29T13:48:04.424Z,10.8
2024-03-29T13:49:34.928Z,10.8
2024-03-29T13:51:05.453Z,10.8
2024-03-29T13:52:35.880Z,10.8
2024-03-29T13:54:06.317Z,10.8
2024-03-29T13:55:36.815Z,10.8
2024-03-29T13:57:07.368Z,10.8
2024-03-29T13:58:37.863Z,10.8
2024-03-29T14:00:08.473Z,10.8
2024-03-29T14:01:38.837Z,10.8
2024-03-29T14:03:09.351Z,10.8
2024-03-29T14:04:39.753Z,10.8
2024-03-29T14:06:10.194Z,10.8
2024-03-29T14:07:40.699Z,10.8
2024-03-29T14:09:11.242Z,10.8
2024-03-29T14:10:41.757Z,10.8
2024-03-29T14:12:12.284Z,10.8
2024-03-29T14:13:42.786Z,10.8
2024-03-29T14:15:13.214Z,10.8
2024-03-29T14:16:43.633Z,10.8
2024-03-29T14:18:14.168Z,10.8
2024-03-29T14:19:44.682Z,10.9
2024-03-29T14:21:15.100Z,10.8
2024-03-29T14:22:45.618Z,10.9
2024-03-29T14:24:16.872Z,10.8
2024-03-29T14:25:47.399Z,10.9
2024-03-29T14:27:17.897Z,10.8
2024-03-29T14:28:48.316Z,10.8
2024-03-29T14:30:18.812Z,10.9
2024-03-29T14:30:35.737Z,10.9
2024-03-29T14:32:06.364Z,10.9
2024-03-29T14:33:36.890Z,10.8
2024-03-29T14:35:07.320Z,10.8
2024-03-29T14:36:37.826Z,10.8
2024-03-29T14:38:08.450Z,10.8
2024-03-29T14:39:38.917Z,10.9
2024-03-29T14:41:09.390Z,10.9
2024-03-29T14:42:39.821Z,10.8
2024-03-29T14:44:10.354Z,10.9
2024-03-29T14:45:40.865Z,10.8
2024-03-29T14:47:11.493Z,10.9
2024-03-29T14:48:41.921Z,10.9
2024-03-29T14:50:12.440Z,10.9
2024-03-29T14:51:42.854Z,10.9
2024-03-29T14:53:13.271Z,10.9
2024-03-29T14:54:43.723Z,10.9
2024-03-29T14:56:18.257Z,10.8
2024-03-29T14:57:49.041Z,10.9
2024-03-29T14:59:19.467Z,10.9
2024-03-29T15:00:49.980Z,10.9
2024-03-29T15:03:15.426Z,10.9
2024-03-29T15:04:45.829Z,10.9
2024-03-29T15:06:18.459Z,10.9
2024-03-29T15:07:50.685Z,10.9
2024-03-29T15:09:21.179Z,10.9
2024-03-29T15:10:51.625Z,10.9
2024-03-29T15:12:22.141Z,10.9
2024-03-29T15:13:55.211Z,10.9
2024-03-29T15:15:25.676Z,10.9
2024-03-29T15:16:56.149Z,10.9
2024-03-29T15:18:26.568Z,10.8
2024-03-29T15:19:56.989Z,10.9
2024-03-29T15:21:27.406Z,10.9
2024-03-29T15:22:57.849Z,10.9
2024-03-29T15:24:28.256Z,10.9
2024-03-29T15:25:58.724Z,10.9
2024-03-29T15:27:29.204Z,10.9
2024-03-29T15:28:59.630Z,10.9
2024-03-29T15:30:30.136Z,10.9
2024-03-29T15:32:00.557Z,10.9
2024-03-29T15:33:30.971Z,10.9
2024-03-29T15:35:01.393Z,10.9
2024-03-29T15:36:31.838Z,10.9
2024-03-29T15:38:02.244Z,10.9
2024-03-29T15:39:32.650Z,10.9
2024-03-29T15:41:03.127Z,10.9
2024-03-29T15:42:33.604Z,10.9
2024-03-29T15:44:04.243Z,10.9
2024-03-29T15:45:34.649Z,10.9
2024-03-29T15:47:05.074Z,10.9
2024-03-29T15:48:35.489Z,10.9
2024-03-29T15:50:05.914Z,10.9
2024-03-29T15:51:36.354Z,10.9
2024-03-29T15:53:06.744Z,10.9
2024-03-29T15:54:37.162Z,10.9
2024-03-29T15:56:07.623Z,10.9
2024-03-29T15:57:38.109Z,10.9
2024-03-29T15:59:08.530Z,10.9
2024-03-29T16:00:38.964Z,10.9
2024-03-29T16:02:09.479Z,10.9
2024-03-29T16:03:39.900Z,10.9
2024-03-29T16:05:10.337Z,10.9
2024-03-29T16:06:40.838Z,10.9
2024-03-29T16:08:11.259Z,10.9
2024-03-29T16:09:42.021Z,10.9
2024-03-29T16:11:12.530Z,10.9
2024-03-29T16:12:42.923Z,10.9
2024-03-29T16:14:13.345Z,10.9
2024-03-29T16:15:43.780Z,10.9
2024-03-29T16:17:14.531Z,10.9
2024-03-29T16:18:45.327Z,10.9
2024-03-29T16:20:15.768Z,10.9
2024-03-29T16:21:46.271Z,10.9
2024-03-29T16:23:16.792Z,10.9
2024-03-29T16:24:47.229Z,10.9
2024-03-29T16:26:17.656Z,10.9
2024-03-29T16:27:48.046Z,10.9
2024-03-29T16:29:18.478Z,10.9
2024-03-29T16:30:48.893Z,10.9
2024-03-29T16:32:19.312Z,10.9
2024-03-29T16:33:50.063Z,10.9
2024-03-29T16:35:20.513Z,10.9
2024-03-29T16:36:50.983Z,11
2024-03-29T16:38:21.417Z,10.9
2024-03-29T16:39:51.828Z,10.9
2024-03-29T16:41:22.271Z,11
2024-03-29T16:42:52.870Z,11
2024-03-29T16:44:23.304Z,10.9
2024-03-29T16:45:53.712Z,10.9
2024-03-29T16:47:24.143Z,11
2024-03-29T16:48:54.573Z,10.9
2024-03-29T16:50:25.072Z,11
2024-03-29T16:51:55.503Z,10.9
2024-03-29T16:52:12.380Z,11
2024-03-29T16:53:44.349Z,11
2024-03-29T16:55:15.997Z,11
2024-03-29T16:56:46.429Z,11
2024-03-29T16:58:16.946Z,11
2024-03-29T16:59:47.360Z,11
2024-03-29T17:01:17.776Z,11
2024-03-29T17:02:48.220Z,11
2024-03-29T17:04:18.715Z,11
2024-03-29T17:05:49.145Z,11
2024-03-29T17:07:19.574Z,11
2024-03-29T17:08:50.084Z,11
2024-03-29T17:10:20.504Z,11
2024-03-29T17:11:50.977Z,11
2024-03-29T17:13:21.451Z,11
2024-03-29T17:14:51.867Z,11
2024-03-29T17:16:22.294Z,11
2024-03-29T17:17:52.710Z,11
2024-03-29T17:19:23.131Z,11.1
2024-03-29T17:20:53.560Z,11
2024-03-29T17:22:23.966Z,11.1
2024-03-29T17:23:54.386Z,11
2024-03-29T17:25:24.835Z,11
2024-03-29T17:26:55.239Z,11
2024-03-29T17:28:25.684Z,11
2024-03-29T17:29:56.170Z,11
2024-03-29T17:31:26.594Z,11
2024-03-29T17:32:57.010Z,11.1
2024-03-29T17:34:27.432Z,11.1
2024-03-29T17:35:57.904Z,11.1
2024-03-29T17:37:28.379Z,11.1
2024-03-29T17:38:58.793Z,11.1
2024-03-29T17:40:29.239Z,11.1
2024-03-29T17:41:59.648Z,11.1
2024-03-29T17:43:30.054Z,11.1
2024-03-29T17:45:00.598Z,11.1
2024-03-29T17:46:31.099Z,11.1
2024-03-29T17:48:01.519Z,11.1
2024-03-29T17:49:31.959Z,11.1
2024-03-29T17:51:02.358Z,11.1
2024-03-29T17:52:32.794Z,11.1
2024-03-29T17:54:03.335Z,11.1
2024-03-29T17:55:33.829Z,11
2024-03-29T17:57:04.270Z,11.1
2024-03-29T17:58:34.683Z,11.1
2024-03-29T18:00:05.093Z,11.1
2024-03-29T18:01:35.509Z,11.1
2024-03-29T18:03:05.935Z,11.1
2024-03-29T18:04:36.362Z,11.1
2024-03-29T18:06:06.776Z,11.1
2024-03-29T18:07:37.209Z,11.1
2024-03-29T18:09:07.629Z,11.1
2024-03-29T18:10:38.045Z,11
2024-03-29T18:12:08.498Z,11
2024-03-29T18:13:39.001Z,11
2024-03-29T18:15:09.395Z,11
2024-03-29T18:16:40.391Z,11
2024-03-29T18:18:11.057Z,11.1
2024-03-29T18:19:41.471Z,11.1
2024-03-29T18:21:11.888Z,11
2024-03-29T18:22:42.444Z,11
2024-03-29T18:24:12.939Z,11
2024-03-29T18:25:43.358Z,11.1
2024-03-29T18:27:13.807Z,11
2024-03-29T18:28:44.208Z,11
2024-03-29T18:30:14.631Z,11
2024-03-29T18:31:45.062Z,11
2024-03-29T18:33:15.582Z,11
2024-03-29T18:34:46.235Z,11
2024-03-29T18:36:16.711Z,11
2024-03-29T18:37:47.355Z,11
2024-03-29T18:39:17.859Z,11
2024-03-29T18:40:48.293Z,11.1
2024-03-29T18:41:05.180Z,11.1
2024-03-29T18:42:35.618Z,11.1
2024-03-29T18:44:06.222Z,11.1
2024-03-29T18:45:36.643Z,11.1
2024-03-29T18:47:07.082Z,11.1
2024-03-29T18:48:37.606Z,11.1
2024-03-29T18:50:08.007Z,11.1
2024-03-29T18:51:38.493Z,11.1
2024-03-29T18:53:08.952Z,11.1
2024-03-29T18:54:39.385Z,11.1
2024-03-29T18:56:09.906Z,11.1
2024-03-29T18:57:40.342Z,11.1
2024-03-29T18:59:10.836Z,11.1
2024-03-29T19:00:41.270Z,11.1
2024-03-29T19:02:11.875Z,11.1
2024-03-29T19:03:42.316Z,11.1
2024-03-29T19:05:12.740Z,11.1
2024-03-29T19:06:43.410Z,11.1
2024-03-29T19:08:13.987Z,11.1
2024-03-29T19:09:44.430Z,11.1
2024-03-29T19:11:15.025Z,11.1
2024-03-29T19:12:45.752Z,11.1
2024-03-29T19:14:16.183Z,11.1
2024-03-29T19:15:46.600Z,11.1
2024-03-29T19:17:17.268Z,11.1
2024-03-29T19:18:47.734Z,11.1
2024-03-29T19:20:18.166Z,11.1
2024-03-29T19:21:48.670Z,11.1
2024-03-29T19:23:19.088Z,11.1
2024-03-29T19:24:49.633Z,11.1
2024-03-29T19:26:20.038Z,11.1
2024-03-29T19:27:50.778Z,11.1
2024-03-29T19:29:21.185Z,11.1
2024-03-29T19:30:51.934Z,11.1
2024-03-29T19:32:22.427Z,11.1
2024-03-29T19:33:53.001Z,11.1
2024-03-29T19:35:23.475Z,11.1
2024-03-29T19:36:53.926Z,11.2
2024-03-29T19:38:24.336Z,11.2
2024-03-29T19:39:54.845Z,11.2
2024-03-29T19:41:25.264Z,11.1
2024-03-29T19:42:55.731Z,11.1
2024-03-29T19:44:26.204Z,11.1
2024-03-29T19:45:56.726Z,11.1
2024-03-29T19:47:27.190Z,11.1
2024-03-29T19:48:57.672Z,11.1
2024-03-29T19:50:28.091Z,11.1
2024-03-29T19:51:58.508Z,11.1
2024-03-29T19:53:29.044Z,11.4
2024-03-29T19:54:59.454Z,11.5
2024-03-29T19:56:30.014Z,11.4
2024-03-29T19:58:00.555Z,11.3
2024-03-29T19:59:30.923Z,11.3
2024-03-29T20:01:01.341Z,11.3
2024-03-29T20:02:31.769Z,11.3
2024-03-29T20:04:02.179Z,11.3
2024-03-29T20:05:32.599Z,11.2
2024-03-29T20:07:03.035Z,11.2
2024-03-29T20:08:37.950Z,11.2
2024-03-29T20:10:08.465Z,11.2
2024-03-29T20:11:39.330Z,11.2
2024-03-29T20:13:10.043Z,11.2
2024-03-29T20:14:40.594Z,11.2
2024-03-29T20:16:11.094Z,11.2
2024-03-29T20:17:41.541Z,11.2
2024-03-29T20:19:12.615Z,11.2
2024-03-29T20:20:43.072Z,11.2
2024-03-29T20:22:13.586Z,11.2
2024-03-29T20:23:44.018Z,11.2
2024-03-29T20:25:14.512Z,11.2
2024-03-29T20:26:45.274Z,11.2
2024-03-29T20:28:15.678Z,11.2
2024-03-29T20:29:46.090Z,11.2
2024-03-29T20:33:04.043Z,11.2
2024-03-29T20:34:34.552Z,11.2
2024-03-29T20:36:05.110Z,11.2
2024-03-29T20:37:35.633Z,11.2
2024-03-29T20:39:06.014Z,11.2
2024-03-29T20:40:36.618Z,11.2
2024-03-29T20:42:07.084Z,11.2
2024-03-29T20:43:38.203Z,11.2
2024-03-29T20:45:08.964Z,11.2
2024-03-29T20:46:39.873Z,11.3
2024-03-29T20:48:10.427Z,11.2
2024-03-29T20:49:40.893Z,11.2
2024-03-29T20:51:11.545Z,11.3
2024-03-29T20:52:41.975Z,11.2
2024-03-29T20:54:12.476Z,11.2
2024-03-29T20:55:45.518Z,11.2
2024-03-29T20:57:16.241Z,11.2
2024-03-29T20:58:47.529Z,11.3
2024-03-29T21:00:17.987Z,11.2
2024-03-29T21:01:48.482Z,11.3
2024-03-29T21:03:19.114Z,11.3
2024-03-29T21:04:49.513Z,11.3
2024-03-29T21:06:20.074Z,11.2
2024-03-29T21:07:50.567Z,11.3
2024-03-29T21:09:21.103Z,11.3